Jones, Alabama
Current Conditions -  °F | °C
As of 11:15 PM on Friday 19 Dec 2014 (Local Time) from KSEM Reporting Station
Light Rain Light Rain  
Wind Chill: 41°   Ceiling: 8000
Heat Index: 45°   Visibility: 6mi
Dew Point: 43°   Wind: 6mph
Humidity: 93%   Direction: 90°E
Pressure: 30.15"   Gusts: NA
Location:  32.58°N, 86.9°W
Report Text: KSEM 200515Z AUTO 09005KT 6SM -RA FEW029 SCT060 BKN080 07/06 A3015 RMK AO2
Loading
Personal Weather Stations






























Interactive Weather Map New forecast layout! Learn more

10-Day Weather Forecast

Advertisements
Track Severe Weather on mobile